Hundvaag 1 weather for Apr 2009
Month no. 262
Obs.
Da.
Temp. Dew Point Precip. Wind
Speed
Wind gusts Cloud cover Press. Humidity Wind dir. Sunny OPT
01.04.2009 6,4 5,3 1,3 0,0 0,0 0 1024,6 93,0 202,5   60,0 %
02.04.2009 6,2 4,3 0,1 1,6 1,6 1 1029,3 88,0 0,0 1 62,5 %
03.04.2009 4,9 3,9 0,5 3,2 3,2 0 1024,3 93,0 135,0   57,5 %
04.04.2009 1,9 1,1 0,0 1,6 3,2 1 1016,1 94,0 90,0 1 57,5 %
05.04.2009 6,1 4,4 0,2 3,2 8,0 2 1017,2 89,0 247,5 1 65,0 %
06.04.2009 3,5 2,3 0,0 4,8 8,0 0 1019,9 92,0 157,5   55,0 %
07.04.2009 6,9 1,2 0,0 0,0 0,0 1 1012,1 67,0 45,0   62,5 %
08.04.2009 6,9 4,2 2,4 11,3 19,3 3 1007,0 83,0 180,0 1 60,0 %
09.04.2009 6,9 5,7 7,1 11,3 11,3 1 1010,4 92,0 202,5 1 50,0 %
10.04.2009 10,6 6,9 0,0 9,7 9,7 1 1015,1 78,0 180,0 1 62,5 %
11.04.2009 10,8 5,6 0,7 11,3 16,1 0 1011,7 70,0 135,0   57,5 %
12.04.2009 7,6 5,7 4,8 0,0 3,2 0 1017,2 88,0 22,5   60,0 %
13.04.2009 6,3 4,9 3,6 3,2 4,8 10 1016,8 91,0 292,5 1 82,5 %
14.04.2009 7,6 6,7 0,3 0,0 0,0 1 1017,2 94,0 90,0 1 65,0 %
15.04.2009 8,1 6,6 0,0 1,6 1,6 7 1022,2 90,0 45,0 1 80,0 %
16.04.2009 9,4 6,3 0,1 0,0 0,0 0 1024,9 81,0 247,5   62,5 %
17.04.2009 7,6 6,7 0,0 0,0 0,0 10 1019,9 94,0 112,5 1 87,5 %
18.04.2009 7,4 6,5 0,0 0,0 0,0 2 1019,2 94,0 292,5 1 65,0 %
19.04.2009 7,9 7,0 0,0 0,0 0,0 10 1029,3 94,0 22,5 1 87,5 %
20.04.2009 5,5 3,2 0,0 0,0 0,0 1 1030,0 77,0 247,5 1 62,5 %
21.04.2009 6,2 4,7 0,0 3,2 4,8 5 1030,0 90,0 180,0 1 72,5 %
22.04.2009 7,5 3,4 0,1 16,1 20,9 3 1023,9 79,0 157,5 1 60,0 %
23.04.2009 7,4 5,6 0,0 3,2 6,4 1 1026,6 88,0 202,5 1 62,5 %
24.04.2009 6,4 3,4 0,0 3,2 4,8 5 1026,3 81,0 157,5 1 72,5 %
25.04.2009 14,2 3,3 0,0 11,3 12,9 6 1021,9 48,0 135,0 1 75,0 %
26.04.2009 12,1 5,5 0,0 11,3 12,9 3 1010,7 64,0 157,5 1 65,0 %
27.04.2009 7,6 3,5 0,0 4,8 4,8 6 1004,6 75,0 22,5 1 75,0 %
28.04.2009 10,3 7,3 12,0 1,6 1,6 8 1010,7 82,0 157,5 1 75,0 %
29.04.2009 12,5 7,2 0,0 3,7 3,7 3 1010,7 70,0 0,0 1 72,5 %
30.04.2009 11,6 8,4 0,0 0,0 0,0 5 1021,9 81,0 270,0 1 77,5 %
                       
Avrg/Sum 7,8 5,0 33,2 4,0 5,4 3,2 1019,1 83,3 146,3 23 67,0 %